Time;durP1;ratioP1;P1;durP2;ratioP2;P2;SDS_P1;SDS_P2;PMS_P1;PMS_P2;Temp;Humidity;BMP_temperature;BMP_pressure;BME280_temperature;BME280_humidity;BME280_pressure;Samples;Min_cycle;Max_cycle;Signal;HPM_P1;HPM_P2
2021/09/22 00:00:15;;;;;;;3.47;1.75;;;11.60;88.40;;;;;;5111432;28;20035;-81
2021/09/22 00:02:41;;;;;;;3.08;1.70;;;11.70;87.70;;;;;;5110861;28;20167;-80
2021/09/22 00:05:07;;;;;;;;;;;11.80;87.10;;;;;;5111629;28;20052;-81
2021/09/22 00:07:33;;;;;;;2.67;1.40;;;11.80;86.80;;;;;;5109447;28;20459;-80
2021/09/22 00:09:59;;;;;;;;;;;11.90;86.80;;;;;;5111417;28;20107;-80
2021/09/22 00:12:24;;;;;;;3.80;1.75;;;11.90;87.00;;;;;;5110703;28;19999;-81
2021/09/22 00:14:50;;;;;;;;;;;11.90;86.90;;;;;;5110033;28;20023;-81
2021/09/22 00:17:16;;;;;;;4.18;1.98;;;11.90;86.40;;;;;;5109848;28;19998;-81
2021/09/22 00:19:41;;;;;;;;;;;11.90;85.80;;;;;;5109829;28;20075;-80
2021/09/22 00:22:07;;;;;;;2.72;1.63;;;11.90;85.90;;;;;;5109735;28;19907;-81
2021/09/22 00:24:32;;;;;;;;;;;11.90;84.40;;;;;;5109670;28;20022;-80
2021/09/22 00:26:58;;;;;;;2.78;1.60;;;11.90;83.10;;;;;;5109225;28;20398;-82
2021/09/22 00:29:25;;;;;;;;;;;12.00;82.60;;;;;;5111429;28;20032;-81
2021/09/22 00:31:51;;;;;;;5.10;2.13;;;12.20;80.60;;;;;;5110496;28;20352;-81
2021/09/22 00:34:16;;;;;;;;;;;12.20;80.10;;;;;;5111410;28;20092;-81
2021/09/22 00:36:43;;;;;;;3.13;1.52;;;12.20;79.60;;;;;;5110666;28;19915;-80
2021/09/22 00:39:09;;;;;;;4.60;1.70;;;12.20;79.80;;;;;;5110411;28;20518;-81
2021/09/22 00:41:34;;;;;;;;;;;12.30;80.00;;;;;;5110145;28;20511;-81
2021/09/22 00:44:00;;;;;;;7.68;1.50;;;12.20;79.80;;;;;;5109804;28;19918;-80
2021/09/22 00:46:26;;;;;;;;;;;12.20;79.90;;;;;;5110962;28;20032;-80
2021/09/22 00:48:52;;;;;;;1.73;0.98;;;12.30;80.00;;;;;;5110507;28;19931;-81
2021/09/22 00:51:17;;;;;;;;;;;12.20;79.80;;;;;;5110468;28;20024;-81
2021/09/22 00:53:43;;;;;;;3.72;1.70;;;12.30;79.50;;;;;;5110337;28;19947;-81
2021/09/22 00:56:08;;;;;;;;;;;12.20;79.10;;;;;;5109833;28;20483;-80
2021/09/22 00:58:34;;;;;;;2.97;1.20;;;12.20;78.30;;;;;;5108768;28;19911;-80
2021/09/22 01:01:00;;;;;;;;;;;12.30;76.90;;;;;;5109106;28;20027;-80
2021/09/22 01:03:26;;;;;;;2.95;1.60;;;12.40;75.90;;;;;;5109774;28;20276;-80
2021/09/22 01:05:53;;;;;;;;;;;12.40;76.20;;;;;;5110018;28;20031;-80
2021/09/22 01:08:19;;;;;;;3.42;1.33;;;12.40;75.00;;;;;;5109939;28;19904;-80
2021/09/22 01:10:46;;;;;;;2.47;1.45;;;12.50;74.80;;;;;;5108862;28;20024;-79
2021/09/22 01:13:13;;;;;;;2.97;1.67;;;12.60;74.90;;;;;;5109567;28;20058;-79
2021/09/22 01:15:43;;;;;;;3.30;1.40;;;12.60;74.50;;;;;;5108750;28;20023;-81
2021/09/22 01:18:12;;;;;;;2.47;1.52;;;12.60;74.70;;;;;;5109743;28;20051;-82
2021/09/22 01:20:39;;;;;;;3.63;1.80;;;12.70;74.60;;;;;;5108982;28;20812;-81
2021/09/22 01:23:06;;;;;;;5.07;1.58;;;12.60;74.80;;;;;;5109185;28;20076;-82
2021/09/22 01:25:36;;;;;;;5.80;1.65;;;12.60;75.20;;;;;;5109595;28;20089;-82
2021/09/22 01:28:03;;;;;;;6.38;1.70;;;12.60;75.50;;;;;;5110387;28;20027;-82
2021/09/22 01:30:29;;;;;;;3.00;1.40;;;12.60;75.50;;;;;;5109958;28;20026;-82
2021/09/22 01:33:01;;;;;;;3.10;1.70;;;12.60;75.40;;;;;;5110238;28;20031;-82
2021/09/22 01:35:36;;;;;;;3.22;1.45;;;12.70;75.80;;;;;;5108779;28;20548;-81
2021/09/22 01:38:08;;;;;;;3.22;1.75;;;12.60;76.30;;;;;;5110111;28;20023;-81
2021/09/22 01:40:34;;;;;;;4.80;1.50;;;12.60;76.60;;;;;;5108794;28;20385;-79
2021/09/22 01:43:01;;;;;;;3.35;1.45;;;12.50;77.20;;;;;;5108417;28;20024;-79
2021/09/22 01:45:27;;;;;;;3.83;1.55;;;12.60;77.30;;;;;;5107916;28;20088;-81
2021/09/22 01:47:53;;;;;;;6.32;2.15;;;12.60;77.70;;;;;;5108850;28;20023;-78
2021/09/22 01:50:19;;;;;;;;;;;12.60;77.90;;;;;;5109018;28;20038;-80
2021/09/22 01:52:49;;;;;;;3.30;1.30;;;12.50;78.50;;;;;;5108784;28;19997;-79
2021/09/22 01:55:19;;;;;;;3.58;1.55;;;12.40;79.00;;;;;;5108424;28;20035;-78
2021/09/22 01:57:44;;;;;;;2.70;1.63;;;12.40;79.50;;;;;;5108320;28;20020;-78
2021/09/22 02:00:10;;;;;;;;;;;12.30;80.10;;;;;;5109230;28;20043;-78
2021/09/22 02:02:36;;;;;;;2.10;1.40;;;12.30;80.40;;;;;;5111009;28;19918;-79
2021/09/22 02:05:01;;;;;;;;;;;12.30;80.70;;;;;;5108925;28;20043;-77
2021/09/22 02:07:27;;;;;;;2.70;1.65;;;12.50;80.50;;;;;;5106474;28;19914;-78
2021/09/22 02:09:53;;;;;;;;;;;12.50;80.30;;;;;;5106564;28;20034;-77
2021/09/22 02:12:19;;;;;;;3.03;1.85;;;12.60;80.30;;;;;;5106578;28;19907;-77
2021/09/22 02:14:44;;;;;;;;;;;12.60;80.60;;;;;;5107169;28;20495;-79
2021/09/22 02:17:10;;;;;;;3.70;2.13;;;12.50;80.70;;;;;;5106830;28;19908;-82
2021/09/22 02:19:36;;;;;;;;;;;12.50;81.10;;;;;;5107865;28;20113;-80
2021/09/22 02:22:02;;;;;;;6.15;1.80;;;12.50;81.30;;;;;;5108429;28;19908;-81
2021/09/22 02:24:28;;;;;;;2.15;1.50;;;12.50;81.40;;;;;;5107437;28;20384;-81
2021/09/22 02:26:53;;;;;;;;;;;12.40;82.30;;;;;;5110021;28;20088;-81
2021/09/22 02:29:20;;;;;;;3.45;2.00;;;12.40;82.00;;;;;;5107008;28;19903;-82
2021/09/22 02:31:48;;;;;;;6.40;1.80;;;12.30;82.30;;;;;;5107418;28;20035;-80
2021/09/22 02:34:14;;;;;;;4.18;2.10;;;12.30;82.60;;;;;;5108625;28;20486;-81
2021/09/22 02:36:40;;;;;;;2.33;1.60;;;12.20;83.00;;;;;;5107415;28;20039;-80
2021/09/22 02:39:06;;;;;;;2.38;1.75;;;12.30;83.50;;;;;;5106746;28;20111;-81
2021/09/22 02:41:31;;;;;;;;;;;12.20;84.20;;;;;;5108676;28;20484;-80
2021/09/22 02:43:58;;;;;;;3.15;1.95;;;12.20;84.60;;;;;;5106560;28;20408;-80
2021/09/22 02:46:24;;;;;;;3.60;2.15;;;12.10;84.90;;;;;;5108201;28;20023;-80
2021/09/22 02:48:50;;;;;;;;;;;12.10;86.00;;;;;;5107384;28;20118;-81
2021/09/22 02:51:15;;;;;;;4.28;2.20;;;12.10;86.70;;;;;;5107773;28;19953;-81
2021/09/22 02:53:41;;;;;;;;;;;12.00;87.10;;;;;;5107229;28;20448;-80
2021/09/22 02:56:06;;;;;;;3.78;2.05;;;12.00;88.60;;;;;;5107530;28;19943;-80
2021/09/22 02:58:32;;;;;;;;;;;12.00;88.70;;;;;;5108475;28;20107;-79
2021/09/22 03:00:58;;;;;;;3.90;1.90;;;11.90;89.70;;;;;;5105767;28;19915;-79
2021/09/22 03:03:23;;;;;;;;;;;11.90;89.60;;;;;;5106638;28;20028;-80
2021/09/22 03:05:49;;;;;;;3.80;2.40;;;11.80;90.00;;;;;;5105891;28;19915;-79
2021/09/22 03:08:15;;;;;;;;;;;11.80;89.70;;;;;;5106287;28;20126;-79
2021/09/22 03:10:40;;;;;;;3.10;1.60;;;11.80;90.10;;;;;;5105832;28;19907;-80
2021/09/22 03:13:06;;;;;;;;;;;11.80;90.40;;;;;;5106636;28;20462;-80
2021/09/22 03:15:32;;;;;;;3.08;2.40;;;11.70;90.40;;;;;;5105673;28;19903;-79
2021/09/22 03:17:58;;;;;;;;;;;11.70;90.50;;;;;;5106507;28;20043;-79
2021/09/22 03:20:23;;;;;;;3.20;2.03;;;11.60;90.90;;;;;;5107430;28;19938;-80
2021/09/22 03:22:49;;;;;;;;;;;11.70;91.10;;;;;;5106330;28;20024;-80
2021/09/22 03:25:15;;;;;;;5.22;2.22;;;11.70;91.00;;;;;;5105477;28;19983;-79
2021/09/22 03:27:41;;;;;;;3.72;2.42;;;11.60;91.30;;;;;;5105771;28;20055;-80
2021/09/22 03:30:09;;;;;;;3.38;2.00;;;11.60;91.20;;;;;;5105453;28;20027;-81
2021/09/22 03:32:35;;;;;;;5.70;1.92;;;11.70;91.20;;;;;;5106709;28;20019;-78
2021/09/22 03:35:01;;;;;;;;;;;11.70;91.40;;;;;;5107400;28;20023;-81
2021/09/22 03:37:27;;;;;;;3.17;2.00;;;11.70;91.30;;;;;;5106987;28;19943;-80
2021/09/22 03:39:52;;;;;;;;;;;11.60;91.30;;;;;;5105178;28;20038;-79
2021/09/22 03:42:18;;;;;;;2.47;1.60;;;11.70;91.40;;;;;;5106628;28;19956;-82
2021/09/22 03:44:44;;;;;;;;;;;11.70;91.40;;;;;;5107302;28;20046;-82
2021/09/22 03:47:09;;;;;;;3.65;2.42;;;11.70;92.00;;;;;;5106115;28;19916;-80
2021/09/22 03:49:35;;;;;;;;;;;11.60;91.80;;;;;;5105929;28;20035;-81
2021/09/22 03:52:01;;;;;;;4.55;2.47;;;11.60;92.00;;;;;;5106906;28;20016;-80
2021/09/22 03:54:26;;;;;;;;;;;11.60;92.00;;;;;;5105416;28;20035;-78
2021/09/22 03:56:52;;;;;;;4.43;2.75;;;11.60;92.30;;;;;;5107129;28;19915;-81
2021/09/22 03:59:17;;;;;;;;;;;11.60;92.20;;;;;;5106542;28;20028;-79
2021/09/22 04:01:43;;;;;;;3.58;2.67;;;11.60;92.40;;;;;;5106842;28;19916;-81
2021/09/22 04:04:10;;;;;;;;;;;11.60;92.40;;;;;;5106012;28;20048;-81
2021/09/22 04:06:36;;;;;;;3.60;2.40;;;11.60;92.70;;;;;;5107111;28;19931;-79
2021/09/22 04:09:01;;;;;;;;;;;11.50;92.60;;;;;;5105371;28;20404;-80
2021/09/22 04:11:27;;;;;;;3.22;2.67;;;11.50;92.80;;;;;;5106770;28;20320;-81
2021/09/22 04:13:52;;;;;;;;;;;11.50;92.80;;;;;;5107846;28;20101;-83
2021/09/22 04:16:18;;;;;;;5.82;3.10;;;11.50;92.90;;;;;;5107700;28;19965;-82
2021/09/22 04:18:43;;;;;;;;;;;11.50;92.90;;;;;;5105530;28;20120;-79
2021/09/22 04:21:09;;;;;;;4.82;3.25;;;11.50;93.10;;;;;;5106117;28;19920;-81
2021/09/22 04:23:34;;;;;;;;;;;11.60;93.20;;;;;;5106399;28;20028;-79
2021/09/22 04:26:00;;;;;;;7.72;3.53;;;11.50;93.70;;;;;;5105248;28;19908;-80
2021/09/22 04:28:26;;;;;;;;;;;11.50;93.40;;;;;;5105501;28;20055;-80
2021/09/22 04:30:51;;;;;;;4.75;2.95;;;11.60;93.60;;;;;;5106570;28;19904;-80
2021/09/22 04:33:17;;;;;;;;;;;11.50;93.60;;;;;;5107338;28;20024;-80
2021/09/22 04:35:42;;;;;;;3.83;2.65;;;11.50;93.90;;;;;;5108644;28;20384;-81
2021/09/22 04:38:08;;;;;;;;;;;11.50;94.20;;;;;;5110744;28;20031;-82
2021/09/22 04:40:35;;;;;;;3.80;2.70;;;11.50;94.30;;;;;;5110029;28;19908;-82
2021/09/22 04:43:01;;;;;;;5.60;3.38;;;11.50;94.20;;;;;;5109316;28;20031;-80
2021/09/22 04:45:28;;;;;;;3.85;3.03;;;11.50;94.40;;;;;;5109756;28;20038;-80
2021/09/22 04:47:55;;;;;;;5.60;3.53;;;11.50;94.50;;;;;;5109711;28;20076;-81
2021/09/22 04:50:22;;;;;;;4.55;2.65;;;11.40;94.70;;;;;;5110580;28;20039;-81
2021/09/22 04:52:48;;;;;;;4.88;3.35;;;11.50;94.80;;;;;;5109749;28;20030;-81
2021/09/22 04:55:14;;;;;;;;;;;11.50;94.80;;;;;;5110262;28;20547;-81
2021/09/22 04:57:40;;;;;;;4.78;3.20;;;11.50;95.00;;;;;;5109502;28;19953;-81
2021/09/22 05:00:08;;;;;;;5.88;3.95;;;11.50;95.00;;;;;;5108359;28;20504;-80
2021/09/22 05:02:33;;;;;;;5.65;2.40;;;11.50;95.20;;;;;;5109357;28;20858;-80
2021/09/22 05:04:59;;;;;;;;;;;11.50;95.30;;;;;;5110160;28;20539;-81
2021/09/22 05:07:24;;;;;;;4.88;3.33;;;11.50;95.70;;;;;;5109560;28;20005;-81
2021/09/22 05:09:50;;;;;;;;;;;11.50;95.60;;;;;;5109696;28;20020;-81
2021/09/22 05:12:16;;;;;;;8.13;3.63;;;11.50;96.10;;;;;;5109421;28;19965;-80
2021/09/22 05:14:41;;;;;;;;;;;11.50;96.30;;;;;;5109924;28;20032;-81
2021/09/22 05:17:07;;;;;;;7.43;3.90;;;11.50;96.90;;;;;;5109411;28;19908;-80
2021/09/22 05:19:32;;;;;;;;;;;11.40;97.20;;;;;;5109881;28;20044;-80
2021/09/22 05:21:59;;;;;;;5.72;3.38;;;11.40;97.80;;;;;;5107424;28;20372;-80
2021/09/22 05:24:24;;;;;;;5.75;3.33;;;11.40;97.80;;;;;;5109076;28;20563;-81
2021/09/22 05:26:50;;;;;;;;;;;11.40;98.40;;;;;;5109420;28;20114;-80
2021/09/22 05:29:16;;;;;;;5.95;3.17;;;11.40;99.10;;;;;;5109153;28;19915;-81
2021/09/22 05:31:42;;;;;;;;;;;11.40;99.10;;;;;;5109406;28;20028;-80
2021/09/22 05:34:07;;;;;;;6.55;3.83;;;11.40;99.50;;;;;;5107963;28;19908;-81
2021/09/22 05:36:33;;;;;;;;;;;11.40;99.90;;;;;;5109780;28;20201;-79
2021/09/22 05:38:58;;;;;;;7.53;4.13;;;11.40;99.90;;;;;;5108818;28;19964;-80
2021/09/22 05:41:24;;;;;;;;;;;11.40;99.90;;;;;;5108537;28;20027;-79
2021/09/22 05:43:50;;;;;;;8.10;4.07;;;11.40;99.90;;;;;;5106602;28;19927;-79
2021/09/22 05:46:15;;;;;;;;;;;11.30;99.90;;;;;;5107388;28;20042;-81
2021/09/22 05:48:41;;;;;;;8.15;4.55;;;11.30;99.90;;;;;;5107442;28;19960;-80
2021/09/22 05:51:06;;;;;;;;;;;11.30;99.90;;;;;;5109383;28;20475;-81
2021/09/22 05:53:32;;;;;;;6.53;4.38;;;11.30;99.90;;;;;;5108602;28;20322;-80
2021/09/22 05:55:57;;;;;;;;;;;11.30;99.90;;;;;;5109436;28;20020;-80
2021/09/22 05:58:24;;;;;;;6.35;4.10;;;11.30;99.90;;;;;;5108495;28;19903;-81
2021/09/22 06:00:52;;;;;;;6.82;4.65;;;11.30;99.90;;;;;;5107694;28;20101;-81
2021/09/22 06:03:18;;;;;;;5.38;4.18;;;11.30;99.90;;;;;;5108506;28;20039;-81
2021/09/22 06:05:44;;;;;;;5.97;3.70;;;11.30;99.90;;;;;;5107395;28;20073;-81
2021/09/22 06:08:09;;;;;;;;;;;11.40;99.90;;;;;;5107091;28;20032;-79
2021/09/22 06:10:36;;;;;;;6.00;3.78;;;11.40;99.90;;;;;;5108288;28;19908;-80
2021/09/22 06:13:03;;;;;;;6.30;3.85;;;11.50;99.90;;;;;;5107028;28;20028;-80
2021/09/22 06:15:29;;;;;;;6.22;3.78;;;11.40;99.90;;;;;;5108483;28;20035;-80
2021/09/22 06:17:54;;;;;;;;;;;11.50;99.90;;;;;;5108783;28;20176;-81
2021/09/22 06:20:20;;;;;;;5.78;4.25;;;11.50;99.90;;;;;;5106714;28;20372;-80
2021/09/22 06:22:46;;;;;;;;;;;11.50;99.90;;;;;;5108678;28;20099;-80
2021/09/22 06:25:13;;;;;;;5.55;4.15;;;11.50;99.90;;;;;;5107993;28;19915;-80
2021/09/22 06:27:40;;;;;;;7.95;4.85;;;11.50;99.90;;;;;;5107959;28;20016;-80
2021/09/22 06:30:06;;;;;;;6.15;4.82;;;11.60;99.90;;;;;;5106336;28;20042;-80
2021/09/22 06:32:32;;;;;;;7.53;4.97;;;11.60;99.90;;;;;;5108172;28;20020;-80
2021/09/22 06:34:57;;;;;;;;;;;11.70;99.90;;;;;;5108340;28;20113;-80
2021/09/22 06:37:23;;;;;;;5.05;4.18;;;11.60;99.90;;;;;;5106392;28;20377;-80
2021/09/22 06:39:48;;;;;;;;;;;11.70;99.90;;;;;;5106692;28;20149;-81
2021/09/22 06:42:14;;;;;;;9.43;4.43;;;11.70;99.90;;;;;;5107849;28;20020;-79
2021/09/22 06:44:40;;;;;;;;;;;11.70;99.90;;;;;;5108177;28;20606;-79
2021/09/22 06:47:05;;;;;;;6.80;4.50;;;11.70;99.90;;;;;;5107701;28;20056;-79
2021/09/22 06:49:31;;;;;;;;;;;11.70;99.90;;;;;;5107726;28;20028;-80
2021/09/22 06:51:57;;;;;;;6.60;4.85;;;11.70;99.90;;;;;;5107053;28;19919;-78
2021/09/22 06:54:22;;;;;;;;;;;11.70;99.90;;;;;;5107725;28;20028;-80
2021/09/22 06:56:48;;;;;;;6.60;4.70;;;11.80;99.90;;;;;;5105523;28;19908;-80
2021/09/22 06:59:14;;;;;;;;;;;11.80;99.90;;;;;;5105773;28;20152;-79
2021/09/22 07:01:40;;;;;;;7.38;4.85;;;11.80;99.90;;;;;;5107059;28;19977;-79
2021/09/22 07:04:07;;;;;;;7.88;5.57;;;11.90;99.90;;;;;;5106128;28;20030;-78
2021/09/22 07:06:33;;;;;;;7.15;5.20;;;11.90;99.90;;;;;;5106425;28;20483;-80
2021/09/22 07:08:58;;;;;;;;;;;11.90;99.90;;;;;;5107994;28;20027;-79
2021/09/22 07:11:24;;;;;;;7.55;5.18;;;12.00;99.90;;;;;;5107357;28;20372;-79
2021/09/22 07:13:49;;;;;;;;;;;12.10;99.90;;;;;;5106922;28;20047;-79
2021/09/22 07:16:16;;;;;;;7.25;4.53;;;12.10;99.90;;;;;;5106661;28;19943;-79
2021/09/22 07:18:44;;;;;;;9.35;4.80;;;12.20;99.90;;;;;;5104916;28;20070;-79
2021/09/22 07:21:10;;;;;;;6.32;5.05;;;12.30;99.90;;;;;;5106449;28;20036;-79
2021/09/22 07:23:36;;;;;;;8.27;5.57;;;12.40;99.90;;;;;;5106988;28;20034;-80
2021/09/22 07:26:03;;;;;;;7.35;5.43;;;12.40;99.90;;;;;;5106715;28;20073;-78
2021/09/22 07:28:30;;;;;;;7.80;5.28;;;12.50;99.90;;;;;;5107046;28;20411;-81
2021/09/22 07:30:56;;;;;;;11.27;5.65;;;12.60;99.90;;;;;;5106873;28;20028;-79
2021/09/22 07:33:21;;;;;;;;;;;12.60;99.90;;;;;;5107570;28;20680;-78
2021/09/22 07:35:47;;;;;;;6.95;5.00;;;12.60;99.90;;;;;;5106469;28;19939;-79
2021/09/22 07:38:14;;;;;;;9.52;5.55;;;12.60;99.90;;;;;;5106300;28;20042;-79
2021/09/22 07:40:40;;;;;;;7.55;5.72;;;12.60;99.90;;;;;;5106672;28;20036;-79
2021/09/22 07:43:06;;;;;;;7.47;4.72;;;12.70;99.90;;;;;;5106417;28;20524;-79
2021/09/22 07:45:32;;;;;;;;;;;12.70;99.90;;;;;;5105761;28;20126;-80
2021/09/22 07:47:58;;;;;;;7.28;4.78;;;12.70;99.90;;;;;;5107092;28;19918;-79
2021/09/22 07:50:24;;;;;;;6.13;4.40;;;12.80;99.90;;;;;;5105132;28;20031;-79
2021/09/22 07:52:50;;;;;;;;;;;13.00;99.90;;;;;;5106378;28;20020;-79
2021/09/22 07:55:16;;;;;;;6.00;3.70;;;13.00;99.90;;;;;;5106769;28;19910;-79
2021/09/22 07:57:42;;;;;;;3.85;3.13;;;13.20;99.90;;;;;;5106046;28;20023;-79
2021/09/22 08:00:10;;;;;;;5.78;3.42;;;13.30;99.90;;;;;;5105092;28;20507;-79
2021/09/22 08:02:36;;;;;;;5.22;3.63;;;13.50;99.90;;;;;;5104601;28;20042;-79
2021/09/22 08:05:02;;;;;;;;;;;13.50;99.90;;;;;;5107001;28;20024;-80
2021/09/22 08:07:27;;;;;;;4.20;2.90;;;13.70;99.60;;;;;;5106046;28;19911;-79
2021/09/22 08:09:53;;;;;;;;;;;13.90;99.60;;;;;;5109883;28;20028;-79
2021/09/22 08:12:18;;;;;;;4.00;2.80;;;14.20;99.50;;;;;;5108884;28;19934;-79
2021/09/22 08:14:44;;;;;;;;;;;14.50;99.20;;;;;;5110006;28;20464;-78
2021/09/22 08:17:12;;;;;;;6.10;2.70;;;15.00;97.60;;;;;;5110730;28;19907;-77
2021/09/22 08:19:38;;;;;;;4.80;2.40;;;15.50;96.30;;;;;;5110206;28;20130;-79
2021/09/22 08:22:04;;;;;;;2.85;1.92;;;16.10;94.80;;;;;;5109683;28;20079;-79
2021/09/22 08:24:31;;;;;;;3.63;2.03;;;16.70;92.40;;;;;;5110134;28;20019;-79
2021/09/22 08:26:56;;;;;;;3.08;1.60;;;17.20;90.70;;;;;;5110268;28;20099;-79
2021/09/22 08:29:22;;;;;;;3.15;1.73;;;17.90;90.30;;;;;;5110462;28;20131;-79
2021/09/22 08:31:49;;;;;;;3.63;1.73;;;18.60;86.00;;;;;;5109711;28;20012;-78
2021/09/22 08:34:15;;;;;;;2.47;1.50;;;18.80;80.70;;;;;;5110031;28;20039;-77
2021/09/22 08:36:43;;;;;;;2.95;1.73;;;18.80;80.40;;;;;;5109850;28;20438;-79
2021/09/22 08:39:10;;;;;;;4.38;1.20;;;18.60;79.00;;;;;;5109515;28;20471;-79
2021/09/22 08:41:35;;;;;;;2.28;1.05;;;18.40;79.90;;;;;;5109977;28;20576;-78
2021/09/22 08:44:05;;;;;;;1.77;1.27;;;18.30;80.20;;;;;;5109627;28;20024;-79
2021/09/22 08:46:35;;;;;;;2.75;1.30;;;18.00;79.90;;;;;;5109806;28;20037;-79
2021/09/22 08:49:04;;;;;;;2.88;1.27;;;17.80;80.20;;;;;;5109362;28;20023;-79
2021/09/22 08:51:30;;;;;;;2.33;1.50;;;17.60;81.90;;;;;;5109401;28;20076;-79
2021/09/22 08:53:57;;;;;;;3.47;1.40;;;17.60;82.20;;;;;;5108450;28;20020;-79
2021/09/22 08:56:24;;;;;;;2.78;1.20;;;17.40;80.10;;;;;;5109225;28;20020;-79
2021/09/22 08:58:50;;;;;;;1.80;1.13;;;17.30;81.90;;;;;;5109535;28;20035;-79
2021/09/22 09:01:20;;;;;;;3.28;1.40;;;17.30;81.90;;;;;;5109482;28;20470;-77
2021/09/22 09:03:46;;;;;;;2.63;1.63;;;17.20;81.00;;;;;;5109558;28;20038;-79
2021/09/22 09:06:37;;;;;;;1.70;1.02;;;17.20;80.50;;;;;;5107537;28;20028;-78
2021/09/22 09:09:04;;;;;;;1.98;1.10;;;17.10;80.20;;;;;;5109288;28;20520;-79
2021/09/22 09:11:34;;;;;;;2.60;1.17;;;17.10;81.30;;;;;;5109158;28;20118;-78
2021/09/22 09:14:04;;;;;;;2.65;0.90;;;17.10;81.60;;;;;;5109679;28;20023;-79
2021/09/22 09:16:37;;;;;;;2.13;1.05;;;17.00;78.90;;;;;;5109399;28;20023;-79
2021/09/22 09:19:14;;;;;;;2.45;0.85;;;16.90;78.50;;;;;;5109190;28;20048;-79
2021/09/22 09:22:01;;;;;;;1.48;1.10;;;16.80;79.50;;;;;;5106342;28;20128;-79
2021/09/22 09:24:34;;;;;;;2.10;1.30;;;16.70;77.70;;;;;;5108449;28;20096;-80
2021/09/22 09:27:01;;;;;;;4.80;1.52;;;16.90;78.00;;;;;;5109202;28;20468;-77
2021/09/22 09:29:27;;;;;;;2.20;1.13;;;17.00;76.10;;;;;;5108865;28;20036;-78
2021/09/22 09:32:10;;;;;;;5.18;1.10;;;16.90;76.80;;;;;;5107835;28;20020;-79
2021/09/22 09:34:36;;;;;;;1.75;0.98;;;17.10;75.30;;;;;;5108334;28;20110;-78
2021/09/22 09:37:01;;;;;;;2.40;1.08;;;16.90;76.00;;;;;;5108670;28;20613;-79
2021/09/22 09:39:29;;;;;;;2.85;1.40;;;16.70;77.50;;;;;;5108640;28;20040;-79
2021/09/22 09:41:57;;;;;;;2.00;0.82;;;16.90;76.50;;;;;;5108447;28;20035;-80
2021/09/22 09:44:25;;;;;;;1.83;1.15;;;17.20;76.50;;;;;;5107115;28;20028;-79
2021/09/22 09:46:53;;;;;;;2.17;1.35;;;17.80;74.80;;;;;;5109089;28;20031;-81
2021/09/22 09:49:24;;;;;;;3.13;1.40;;;18.20;73.30;;;;;;5111111;28;20034;-78
2021/09/22 09:51:58;;;;;;;1.90;1.30;;;18.70;72.20;;;;;;5110189;28;20604;-79
2021/09/22 09:54:25;;;;;;;2.65;1.00;;;19.10;71.80;;;;;;5108573;28;20042;-79
2021/09/22 09:56:53;;;;;;;2.28;1.52;;;19.60;69.50;;;;;;5108707;28;20096;-80
2021/09/22 09:59:20;;;;;;;2.33;1.17;;;19.50;66.00;;;;;;5106932;28;20032;-77
2021/09/22 10:01:49;;;;;;;2.00;1.20;;;19.50;67.60;;;;;;5108443;28;20068;-79
2021/09/22 10:04:17;;;;;;;2.70;1.80;;;19.80;66.90;;;;;;5108279;28;20292;-79
2021/09/22 10:06:43;;;;;;;1.75;1.15;;;19.80;66.00;;;;;;5107970;28;20127;-79
2021/09/22 10:09:10;;;;;;;2.90;1.27;;;20.10;65.30;;;;;;5108536;28;20110;-79
2021/09/22 10:11:37;;;;;;;3.47;1.40;;;20.00;63.60;;;;;;5108368;28;20027;-79
2021/09/22 10:14:05;;;;;;;2.20;1.17;;;19.80;63.80;;;;;;5108344;28;20098;-79
2021/09/22 10:16:33;;;;;;;4.07;1.27;;;20.00;63.80;;;;;;5108652;28;20091;-79
2021/09/22 10:19:00;;;;;;;1.70;1.05;;;19.80;63.10;;;;;;5107373;28;20051;-80
2021/09/22 10:21:26;;;;;;;1.95;1.27;;;19.60;63.90;;;;;;5107833;28;20055;-79
2021/09/22 10:23:55;;;;;;;1.55;1.02;;;19.40;63.30;;;;;;5106871;28;20514;-79
2021/09/22 10:26:22;;;;;;;2.10;1.30;;;19.00;63.40;;;;;;5107576;28;20023;-79
2021/09/22 10:28:52;;;;;;;2.70;1.08;;;19.00;65.80;;;;;;5108090;28;20020;-78
2021/09/22 10:31:38;;;;;;;1.65;1.00;;;19.20;65.90;;;;;;5107983;28;20499;-79
2021/09/22 10:34:04;;;;;;;2.97;1.60;;;19.20;65.40;;;;;;5107464;28;20046;-80
2021/09/22 10:36:41;;;;;;;1.98;0.90;;;19.30;64.00;;;;;;5106047;28;20031;-80
2021/09/22 10:39:24;;;;;;;1.67;1.02;;;19.00;63.30;;;;;;5107764;28;20039;-81
2021/09/22 10:41:50;;;;;;;1.92;1.02;;;18.60;65.00;;;;;;5107454;28;20039;-78
2021/09/22 10:44:33;;;;;;;2.03;1.05;;;18.60;65.90;;;;;;5107525;28;20031;-80
2021/09/22 10:47:22;;;;;;;2.17;0.98;;;18.70;65.20;;;;;;5107503;28;20034;-79
2021/09/22 10:49:48;;;;;;;1.60;0.95;;;18.60;64.00;;;;;;5106738;28;20095;-78
2021/09/22 10:52:36;;;;;;;1.70;0.90;;;18.50;66.60;;;;;;5107103;28;20031;-79
2021/09/22 10:55:06;;;;;;;2.25;0.90;;;18.70;65.40;;;;;;5107615;28;20024;-80
2021/09/22 10:57:31;;;;;;;1.88;0.90;;;18.70;63.40;;;;;;5105881;28;20020;-80
2021/09/22 11:00:16;;;;;;;3.03;0.85;;;18.50;64.70;;;;;;5106109;28;20035;-79
2021/09/22 11:02:44;;;;;;;2.15;0.77;;;18.50;64.30;;;;;;5105978;28;20038;-80
2021/09/22 11:05:34;;;;;;;1.67;1.25;;;18.50;64.20;;;;;;5106883;28;20046;-80
2021/09/22 11:08:08;;;;;;;3.00;1.00;;;18.10;63.10;;;;;;5098481;28;20491;-80
2021/09/22 11:10:54;;;;;;;1.42;1.10;;;18.00;64.00;;;;;;5107203;28;20023;-79
2021/09/22 11:13:22;;;;;;;2.08;0.90;;;17.70;64.00;;;;;;5107391;28;20193;-80
2021/09/22 11:15:53;;;;;;;3.65;0.80;;;17.60;64.90;;;;;;5106536;28;20111;-78
2021/09/22 11:18:19;;;;;;;1.20;0.80;;;17.50;65.20;;;;;;5106480;28;20052;-79
2021/09/22 11:20:55;;;;;;;1.70;1.05;;;17.40;66.70;;;;;;5107134;28;20035;-79
2021/09/22 11:23:23;;;;;;;1.35;0.70;;;17.40;64.90;;;;;;5105583;28;20059;-79
2021/09/22 11:25:49;;;;;;;1.50;0.90;;;17.20;65.50;;;;;;5106414;28;20054;-80
2021/09/22 11:28:15;;;;;;;1.25;0.70;;;17.10;66.10;;;;;;5105722;28;20088;-80
2021/09/22 11:30:42;;;;;;;1.25;0.77;;;17.00;66.60;;;;;;5106707;28;20061;-79
2021/09/22 11:33:19;;;;;;;1.42;0.88;;;17.00;67.20;;;;;;5106722;28;20027;-80
2021/09/22 11:35:44;;;;;;;2.05;0.95;;;17.10;67.70;;;;;;5104856;28;20024;-79
2021/09/22 11:38:10;;;;;;;2.10;0.65;;;17.20;66.60;;;;;;5106438;28;20034;-80
2021/09/22 11:40:36;;;;;;;2.38;1.25;;;17.20;66.50;;;;;;5105471;28;20523;-80
2021/09/22 11:43:15;;;;;;;1.95;0.98;;;17.20;67.40;;;;;;5105177;28;20446;-79
2021/09/22 11:45:51;;;;;;;1.80;0.90;;;17.30;66.80;;;;;;5106558;28;20027;-79
2021/09/22 11:48:37;;;;;;;;;;;17.80;65.50;;;;;;5107002;28;20045;-80
2021/09/22 11:51:07;;;;;;;1.80;1.25;;;18.00;64.40;;;;;;5106330;28;19908;-80
2021/09/22 11:53:36;;;;;;;1.70;1.08;;;17.90;64.30;;;;;;5106288;28;20035;-78
2021/09/22 11:56:03;;;;;;;3.63;0.90;;;17.90;64.90;;;;;;5107161;28;20030;-80
2021/09/22 11:58:31;;;;;;;1.70;1.02;;;17.80;65.60;;;;;;5106553;28;20028;-79
2021/09/22 12:01:03;;;;;;;4.70;1.02;;;17.70;66.10;;;;;;5106377;28;20032;-79
2021/09/22 12:03:36;;;;;;;1.95;1.15;;;17.80;66.60;;;;;;5104850;28;20028;-79
2021/09/22 12:06:15;;;;;;;2.38;1.13;;;17.70;66.00;;;;;;5106846;28;20028;-79
2021/09/22 12:08:43;;;;;;;4.80;1.13;;;17.60;65.10;;;;;;5106937;28;20016;-80
2021/09/22 12:11:10;;;;;;;1.63;0.82;;;17.50;64.60;;;;;;5106414;28;20035;-80
2021/09/22 12:13:43;;;;;;;5.38;1.77;;;17.30;65.00;;;;;;5105205;28;20028;-80
2021/09/22 12:16:09;;;;;;;2.60;1.10;;;17.10;67.70;;;;;;5105200;28;20032;-78
2021/09/22 12:18:37;;;;;;;1.65;1.00;;;17.30;65.90;;;;;;5105782;28;20473;-80
2021/09/22 12:21:03;;;;;;;1.45;0.70;;;17.00;65.50;;;;;;5105311;28;20032;-79
2021/09/22 12:23:33;;;;;;;2.25;0.70;;;16.90;66.50;;;;;;5106651;28;20026;-79
2021/09/22 12:26:14;;;;;;;2.60;1.00;;;16.80;67.10;;;;;;5106301;28;20496;-79
2021/09/22 12:28:41;;;;;;;1.30;0.80;;;16.80;66.20;;;;;;5106452;28;20028;-80
2021/09/22 12:31:21;;;;;;;1.63;0.77;;;16.80;67.00;;;;;;5104742;28;20034;-79
2021/09/22 12:33:47;;;;;;;1.52;0.60;;;16.80;66.60;;;;;;5106129;28;20026;-79
2021/09/22 12:36:19;;;;;;;1.10;0.77;;;16.90;64.20;;;;;;5105157;28;20032;-80
2021/09/22 12:38:53;;;;;;;1.65;0.88;;;16.90;63.70;;;;;;5106626;28;20077;-79
2021/09/22 12:41:21;;;;;;;3.17;0.82;;;16.90;64.50;;;;;;5106480;28;20069;-79
2021/09/22 12:43:57;;;;;;;1.80;0.98;;;16.80;64.90;;;;;;5106091;28;20392;-80
2021/09/22 12:46:22;;;;;;;2.83;1.40;;;16.70;65.40;;;;;;5106327;28;20511;-79
2021/09/22 12:48:48;;;;;;;2.00;1.10;;;16.50;66.20;;;;;;5105762;28;20024;-78
2021/09/22 12:51:26;;;;;;;1.95;0.98;;;16.50;67.30;;;;;;5106072;28;20106;-80
2021/09/22 12:53:51;;;;;;;5.13;0.80;;;16.60;67.20;;;;;;5105819;28;20104;-80
2021/09/22 12:56:19;;;;;;;1.73;0.98;;;16.60;67.90;;;;;;5108074;28;20031;-79
2021/09/22 12:58:45;;;;;;;2.00;1.20;;;16.70;67.60;;;;;;5109545;28;20358;-80
2021/09/22 13:01:15;;;;;;;2.58;1.08;;;16.80;66.80;;;;;;5109867;28;20039;-80
2021/09/22 13:03:47;;;;;;;2.65;1.00;;;16.80;66.60;;;;;;5109301;28;20097;-80
2021/09/22 13:06:15;;;;;;;4.80;0.80;;;16.90;68.60;;;;;;5109733;28;20077;-80